F/V Fleur Des Vagues — FPEJ — position and weather

sailwx.info

Track history (hours):
 
Tides and Currents Weather Stations Pressure Air Temp Water Temp Dewpoint Dewpoint Depression Visibility Wind Speed Wind Dir Waves Ship Positions

F/V Fleur Des Vagues

Last reported at 2015-Feb-20 06:34 UTC. Time now 2015-Feb-28 16:02 UTC.
Position N 46°30' W 001°47'.
Warning: this ship's position is 8 days out of date.

Length 16 m.

Type: Fishing. MMSI: 227893000.

Date/timePositionNaut miles runAvg speedWind from/ knotsBaromVisibWave heightAir tempDewpointWater temp
2015-Feb-20 06:34N 46°30' W 001°47'0 0.0
2015-Feb-20 05:34N 46°30' W 001°47'2 2.4
2015-Feb-20 04:34N 46°27' W 001°47'8 8.3
2015-Feb-20 03:33N 46°19' W 001°49'9 8.7
2015-Feb-20 02:33N 46°11' W 001°50'1 1.1
2015-Feb-20 01:33N 46°10' W 001°52'2 2.0
2015-Feb-20 00:27N 46°12' W 001°53'1 0.8
2015-Feb-19 23:34N 46°12' W 001°53'1 1.2
2015-Feb-19 22:31N 46°11' W 001°52'2 1.9
2015-Feb-19 21:20N 46°13' W 001°53'1 1.3
2015-Feb-19 20:26N 46°14' W 001°54'0 0.1
2015-Feb-19 19:05N 46°14' W 001°55'0 0.0
2015-Feb-19 18:16N 46°14' W 001°55'0 0.2
2015-Feb-19 17:21N 46°14' W 001°54'0 0.0
2015-Feb-19 16:07N 46°14' W 001°54'0 0.1
2015-Feb-19 15:28N 46°14' W 001°54'0 0.0
2015-Feb-19 14:33N 46°14' W 001°54'0 0.0
2015-Feb-19 13:33N 46°14' W 001°54'1 0.6
2015-Feb-19 12:33N 46°13' W 001°54'1 0.7
2015-Feb-19 11:33N 46°13' W 001°53'3 3.0
2015-Feb-19 10:34N 46°10' W 001°51'2 1.8
2015-Feb-19 09:19N 46°11' W 001°54'2 2.5
2015-Feb-19 08:33N 46°10' W 001°52'1 0.5
2015-Feb-19 06:29N 46°11' W 001°53'2 1.8
2015-Feb-19 05:33N 46°09' W 001°51'2 1.3
2015-Feb-19 04:03N 46°11' W 001°52'1 0.8
2015-Feb-19 02:19N 46°13' W 001°52'7 8.8
2015-Feb-19 01:33N 46°19' W 001°50'9 9.0
2015-Feb-19 00:34N 46°28' W 001°47'2 2.0
2015-Feb-18 23:33N 46°30' W 001°47'0 0.0
2015-Feb-18 22:33N 46°30' W 001°47'0 0.0
2015-Feb-18 21:34N 46°30' W 001°47'0 0.0
2015-Feb-18 20:33N 46°30' W 001°47'0 0.0
2015-Feb-18 19:34N 46°30' W 001°47'0 0.0
2015-Feb-18 18:33N 46°30' W 001°47'0 0.0
2015-Feb-18 17:33N 46°30' W 001°47'0 0.0
2015-Feb-18 16:33N 46°30' W 001°47'0 0.0
2015-Feb-18 15:33N 46°30' W 001°47'0 0.4
2015-Feb-18 14:33N 46°30' W 001°48'9 9.3
2015-Feb-18 13:33N 46°20' W 001°50'10 9.6
2015-Feb-18 12:33N 46°11' W 001°53'2 1.5
2015-Feb-18 11:12N 46°12' W 001°55'3 5.2
2015-Feb-18 10:33N 46°09' W 001°52'2 1.9
2015-Feb-18 09:27N 46°08' W 001°50'1 1.2
2015-Feb-18 08:24N 46°09' W 001°51'1 0.8
2015-Feb-18 07:33N 46°10' W 001°52'0 0.4
2015-Feb-18 06:29N 46°10' W 001°51'0 0.2
2015-Feb-18 05:33N 46°10' W 001°51'2 1.5
2015-Feb-18 04:32N 46°09' W 001°50'1 1.0
2015-Feb-18 03:33N 46°09' W 001°50'1 0.9
2015-Feb-18 02:33N 46°09' W 001°49'9 9.3
2015-Feb-18 01:34N 46°18' W 001°48'9 9.0
2015-Feb-18 00:33N 46°27' W 001°47'3 2.7
2015-Feb-17 23:33N 46°30' W 001°47'0 0.0
2015-Feb-17 22:33N 46°30' W 001°47'0 0.0
2015-Feb-17 21:33N 46°30' W 001°47'0 0.0
2015-Feb-17 20:33N 46°30' W 001°47'0 0.0
2015-Feb-17 19:33N 46°30' W 001°47'0 0.0
2015-Feb-17 17:33N 46°30' W 001°47'0 0.0
2015-Feb-17 16:33N 46°30' W 001°47'6 5.5
2015-Feb-17 15:33N 46°24' W 001°48'10 8.9
2015-Feb-17 14:29N 46°15' W 001°51'7 1.4
2015-Feb-17 09:24N 46°08' W 001°51'2 2.4
2015-Feb-17 08:25N 46°10' W 001°52'2 1.9
2015-Feb-17 07:32N 46°09' W 001°51'3 2.2
2015-Feb-17 06:13N 46°11' W 001°53'1 1.4
2015-Feb-17 05:33N 46°11' W 001°52'1 1.3
2015-Feb-17 04:30N 46°09' W 001°51'1 1.1
2015-Feb-17 03:32N 46°09' W 001°50'2 1.5
2015-Feb-17 02:26N 46°10' W 001°49'8 9.4
2015-Feb-17 01:34N 46°18' W 001°48'9 9.3
2015-Feb-17 00:33N 46°28' W 001°47'2 2.3
2015-Feb-16 23:33N 46°30' W 001°47'0 0.0
2015-Feb-16 22:33N 46°30' W 001°47'0 0.0
2015-Feb-16 21:33N 46°30' W 001°47'0 0.0
2015-Feb-16 20:33N 46°30' W 001°47'0 0.0
2015-Feb-16 19:33N 46°30' W 001°47'0 0.0
2015-Feb-16 18:33N 46°30' W 001°47'0 0.0
2015-Feb-16 17:33N 46°30' W 001°47'0 0.0
2015-Feb-16 16:33N 46°30' W 001°47'0 0.0
2015-Feb-16 15:33N 46°30' W 001°47'0 0.0
2015-Feb-16 14:33N 46°30' W 001°47'0 0.0
2015-Feb-16 13:33N 46°30' W 001°47'0 0.0
2015-Feb-16 12:33N 46°30' W 001°47'0 0.0
2015-Feb-16 11:33N 46°30' W 001°47'4 3.8
2015-Feb-16 10:33N 46°26' W 001°48'9 9.4
2015-Feb-16 09:33N 46°17' W 001°51'6 3.1
2015-Feb-16 07:33N 46°11' W 001°52'3 2.4
2015-Feb-16 06:23N 46°08' W 001°50'1 1.8
2015-Feb-16 05:33N 46°10' W 001°51'0 0.4
2015-Feb-16 04:33N 46°09' W 001°52'0 0.3
2015-Feb-16 03:33N 46°09' W 001°52'2 1.7
2015-Feb-16 02:33N 46°10' W 001°53'2 1.9
2015-Feb-16 01:32N 46°09' W 001°52'1 0.8
2015-Feb-16 00:33N 46°09' W 001°51'1 1.2
2015-Feb-15 23:34N 46°11' W 001°52'0 0.0
2015-Feb-15 22:33N 46°11' W 001°52'0 0.0
2015-Feb-15 21:33N 46°11' W 001°52'0 0.0
2015-Feb-15 20:33N 46°11' W 001°52'0 0.0
2015-Feb-15 19:33N 46°11' W 001°52'0 0.0
2015-Feb-15 18:33N 46°11' W 001°52'0 0.1
2015-Feb-15 17:33N 46°11' W 001°52'0 0.0
2015-Feb-15 16:33N 46°11' W 001°52'0 0.1
2015-Feb-15 15:33N 46°11' W 001°52'1 1.4
2015-Feb-15 14:32N 46°09' W 001°51'3 3.0
2015-Feb-15 13:32N 46°06' W 001°50'  
2015-Feb-12 22:29N 45°50' W 001°46'22 7.4
2015-Feb-12 19:33N 46°12' W 001°47'8 7.9
2015-Feb-12 18:33N 46°19' W 001°47'7 7.2
2015-Feb-12 17:33N 46°27' W 001°47'3 3.2
2015-Feb-12 16:33N 46°30' W 001°47'0 0.0
2015-Feb-12 15:33N 46°30' W 001°47'0 0.0
2015-Feb-12 14:33N 46°30' W 001°47'0 0.0
2015-Feb-12 13:33N 46°30' W 001°47'3 3.0
2015-Feb-12 12:33N 46°27' W 001°47'10 9.6
2015-Feb-12 11:33N 46°17' W 001°47'11 9.4
2015-Feb-12 10:21N 46°06' W 001°46'16 0.8
2015-Feb-11 14:23N 45°50' W 001°45'2 0.3
2015-Feb-11 06:33N 45°48' W 001°45'2 1.2
2015-Feb-11 05:05N 45°49' W 001°46'23 1.1
2015-Feb-10 08:15N 46°12' W 001°49'1 1.0
2015-Feb-10 07:32N 46°12' W 001°48'  
Track history (hours):
 
Tides and Currents Weather Stations Pressure Air Temp Water Temp Dewpoint Dewpoint Depression Visibility Wind Speed Wind Dir Waves Ship Positions

F/V Fleur Des Vagues

Last reported at 2015-Feb-20 06:34 UTC. Time now 2015-Feb-28 16:02 UTC.
Position N 46°30' W 001°47'.
Warning: this ship's position is 8 days out of date.

Length 16 m.

Type: Fishing. MMSI: 227893000.

Date/timePositionNaut miles runAvg speedWind from/ knotsBaromVisibWave heightAir tempDewpointWater temp
2015-Feb-20 06:34N 46°30' W 001°47'0 0.0
2015-Feb-20 05:34N 46°30' W 001°47'2 2.4
2015-Feb-20 04:34N 46°27' W 001°47'8 8.3
2015-Feb-20 03:33N 46°19' W 001°49'9 8.7
2015-Feb-20 02:33N 46°11' W 001°50'1 1.1
2015-Feb-20 01:33N 46°10' W 001°52'2 2.0
2015-Feb-20 00:27N 46°12' W 001°53'1 0.8
2015-Feb-19 23:34N 46°12' W 001°53'1 1.2
2015-Feb-19 22:31N 46°11' W 001°52'2 1.9
2015-Feb-19 21:20N 46°13' W 001°53'1 1.3
2015-Feb-19 20:26N 46°14' W 001°54'0 0.1
2015-Feb-19 19:05N 46°14' W 001°55'0 0.0
2015-Feb-19 18:16N 46°14' W 001°55'0 0.2
2015-Feb-19 17:21N 46°14' W 001°54'0 0.0
2015-Feb-19 16:07N 46°14' W 001°54'0 0.1
2015-Feb-19 15:28N 46°14' W 001°54'0 0.0
2015-Feb-19 14:33N 46°14' W 001°54'0 0.0
2015-Feb-19 13:33N 46°14' W 001°54'1 0.6
2015-Feb-19 12:33N 46°13' W 001°54'1 0.7
2015-Feb-19 11:33N 46°13' W 001°53'3 3.0
2015-Feb-19 10:34N 46°10' W 001°51'2 1.8
2015-Feb-19 09:19N 46°11' W 001°54'2 2.5
2015-Feb-19 08:33N 46°10' W 001°52'1 0.5
2015-Feb-19 06:29N 46°11' W 001°53'2 1.8
2015-Feb-19 05:33N 46°09' W 001°51'2 1.3
2015-Feb-19 04:03N 46°11' W 001°52'1 0.8
2015-Feb-19 02:19N 46°13' W 001°52'7 8.8
2015-Feb-19 01:33N 46°19' W 001°50'9 9.0
2015-Feb-19 00:34N 46°28' W 001°47'2 2.0
2015-Feb-18 23:33N 46°30' W 001°47'0 0.0
2015-Feb-18 22:33N 46°30' W 001°47'0 0.0
2015-Feb-18 21:34N 46°30' W 001°47'0 0.0
2015-Feb-18 20:33N 46°30' W 001°47'0 0.0
2015-Feb-18 19:34N 46°30' W 001°47'0 0.0
2015-Feb-18 18:33N 46°30' W 001°47'0 0.0
2015-Feb-18 17:33N 46°30' W 001°47'0 0.0
2015-Feb-18 16:33N 46°30' W 001°47'0 0.0
2015-Feb-18 15:33N 46°30' W 001°47'0 0.4
2015-Feb-18 14:33N 46°30' W 001°48'9 9.3
2015-Feb-18 13:33N 46°20' W 001°50'10 9.6
2015-Feb-18 12:33N 46°11' W 001°53'2 1.5
2015-Feb-18 11:12N 46°12' W 001°55'3 5.2
2015-Feb-18 10:33N 46°09' W 001°52'2 1.9
2015-Feb-18 09:27N 46°08' W 001°50'1 1.2
2015-Feb-18 08:24N 46°09' W 001°51'1 0.8
2015-Feb-18 07:33N 46°10' W 001°52'0 0.4
2015-Feb-18 06:29N 46°10' W 001°51'0 0.2
2015-Feb-18 05:33N 46°10' W 001°51'2 1.5
2015-Feb-18 04:32N 46°09' W 001°50'1 1.0
2015-Feb-18 03:33N 46°09' W 001°50'1 0.9
2015-Feb-18 02:33N 46°09' W 001°49'9 9.3
2015-Feb-18 01:34N 46°18' W 001°48'9 9.0
2015-Feb-18 00:33N 46°27' W 001°47'3 2.7
2015-Feb-17 23:33N 46°30' W 001°47'0 0.0
2015-Feb-17 22:33N 46°30' W 001°47'0 0.0
2015-Feb-17 21:33N 46°30' W 001°47'0 0.0
2015-Feb-17 20:33N 46°30' W 001°47'0 0.0
2015-Feb-17 19:33N 46°30' W 001°47'0 0.0
2015-Feb-17 17:33N 46°30' W 001°47'0 0.0
2015-Feb-17 16:33N 46°30' W 001°47'6 5.5
2015-Feb-17 15:33N 46°24' W 001°48'10 8.9
2015-Feb-17 14:29N 46°15' W 001°51'7 1.4
2015-Feb-17 09:24N 46°08' W 001°51'2 2.4
2015-Feb-17 08:25N 46°10' W 001°52'2 1.9
2015-Feb-17 07:32N 46°09' W 001°51'3 2.2
2015-Feb-17 06:13N 46°11' W 001°53'1 1.4
2015-Feb-17 05:33N 46°11' W 001°52'1 1.3
2015-Feb-17 04:30N 46°09' W 001°51'1 1.1
2015-Feb-17 03:32N 46°09' W 001°50'2 1.5
2015-Feb-17 02:26N 46°10' W 001°49'8 9.4
2015-Feb-17 01:34N 46°18' W 001°48'9 9.3
2015-Feb-17 00:33N 46°28' W 001°47'2 2.3
2015-Feb-16 23:33N 46°30' W 001°47'0 0.0
2015-Feb-16 22:33N 46°30' W 001°47'0 0.0
2015-Feb-16 21:33N 46°30' W 001°47'0 0.0
2015-Feb-16 20:33N 46°30' W 001°47'0 0.0
2015-Feb-16 19:33N 46°30' W 001°47'0 0.0
2015-Feb-16 18:33N 46°30' W 001°47'0 0.0
2015-Feb-16 17:33N 46°30' W 001°47'0 0.0
2015-Feb-16 16:33N 46°30' W 001°47'0 0.0
2015-Feb-16 15:33N 46°30' W 001°47'0 0.0
2015-Feb-16 14:33N 46°30' W 001°47'0 0.0
2015-Feb-16 13:33N 46°30' W 001°47'0 0.0
2015-Feb-16 12:33N 46°30' W 001°47'0 0.0
2015-Feb-16 11:33N 46°30' W 001°47'4 3.8
2015-Feb-16 10:33N 46°26' W 001°48'9 9.4
2015-Feb-16 09:33N 46°17' W 001°51'6 3.1
2015-Feb-16 07:33N 46°11' W 001°52'3 2.4
2015-Feb-16 06:23N 46°08' W 001°50'1 1.8
2015-Feb-16 05:33N 46°10' W 001°51'0 0.4
2015-Feb-16 04:33N 46°09' W 001°52'0 0.3
2015-Feb-16 03:33N 46°09' W 001°52'2 1.7
2015-Feb-16 02:33N 46°10' W 001°53'2 1.9
2015-Feb-16 01:32N 46°09' W 001°52'1 0.8
2015-Feb-16 00:33N 46°09' W 001°51'1 1.2
2015-Feb-15 23:34N 46°11' W 001°52'0 0.0
2015-Feb-15 22:33N 46°11' W 001°52'0 0.0
2015-Feb-15 21:33N 46°11' W 001°52'0 0.0
2015-Feb-15 20:33N 46°11' W 001°52'0 0.0
2015-Feb-15 19:33N 46°11' W 001°52'0 0.0
2015-Feb-15 18:33N 46°11' W 001°52'0 0.1
2015-Feb-15 17:33N 46°11' W 001°52'0 0.0
2015-Feb-15 16:33N 46°11' W 001°52'0 0.1
2015-Feb-15 15:33N 46°11' W 001°52'1 1.4
2015-Feb-15 14:32N 46°09' W 001°51'3 3.0
2015-Feb-15 13:32N 46°06' W 001°50'  
2015-Feb-12 22:29N 45°50' W 001°46'22 7.4
2015-Feb-12 19:33N 46°12' W 001°47'8 7.9
2015-Feb-12 18:33N 46°19' W 001°47'7 7.2
2015-Feb-12 17:33N 46°27' W 001°47'3 3.2
2015-Feb-12 16:33N 46°30' W 001°47'0 0.0
2015-Feb-12 15:33N 46°30' W 001°47'0 0.0
2015-Feb-12 14:33N 46°30' W 001°47'0 0.0
2015-Feb-12 13:33N 46°30' W 001°47'3 3.0
2015-Feb-12 12:33N 46°27' W 001°47'10 9.6
2015-Feb-12 11:33N 46°17' W 001°47'11 9.4
2015-Feb-12 10:21N 46°06' W 001°46'16 0.8
2015-Feb-11 14:23N 45°50' W 001°45'2 0.3
2015-Feb-11 06:33N 45°48' W 001°45'2 1.2
2015-Feb-11 05:05N 45°49' W 001°46'23 1.1
2015-Feb-10 08:15N 46°12' W 001°49'1 1.0
2015-Feb-10 07:32N 46°12' W 001°48'  

Dump ship's entire track history